createdAt,value
2023-05-08T00:02:07.418Z,27.15
2023-05-08T00:04:38.593Z,27.17
2023-05-08T00:07:15.614Z,27.19
2023-05-08T00:09:52.489Z,27.19
2023-05-08T00:12:25.515Z,27.19
2023-05-08T00:15:02.631Z,27.18
2023-05-08T00:17:33.510Z,27.14
2023-05-08T00:20:08.714Z,27.14
2023-05-08T00:22:42.928Z,27.13
2023-05-08T00:25:21.049Z,27.15
2023-05-08T00:27:54.641Z,27.14
2023-05-08T00:30:24.679Z,27.16
2023-05-08T00:33:01.157Z,27.17
2023-05-08T00:35:41.121Z,27.14
2023-05-08T00:38:11.633Z,27.13
2023-05-08T00:40:43.513Z,27.13
2023-05-08T00:43:28.018Z,27.14
2023-05-08T00:46:10.119Z,27.17
2023-05-08T00:48:40.873Z,27.14
2023-05-08T00:51:15.185Z,27.11
2023-05-08T00:53:46.725Z,27.14
2023-05-08T00:56:18.256Z,27.11
2023-05-08T00:58:54.152Z,27.13
2023-05-08T01:01:29.987Z,27.10
2023-05-08T01:04:04.138Z,27.09
2023-05-08T01:06:36.815Z,27.17
2023-05-08T01:09:15.523Z,27.18
2023-05-08T01:12:16.332Z,27.16
2023-05-08T01:15:11.092Z,27.16
2023-05-08T01:18:15.783Z,27.15
2023-05-08T01:21:42.145Z,27.10
2023-05-08T01:25:00.676Z,27.12
2023-05-08T01:27:55.397Z,27.08
2023-05-08T01:30:41.554Z,27.10
2023-05-08T01:33:20.252Z,27.06
2023-05-08T01:36:01.705Z,27.06
2023-05-08T01:39:05.432Z,27.07
2023-05-08T01:41:42.154Z,27.06
2023-05-08T01:44:22.655Z,27.04
2023-05-08T01:47:04.784Z,27.05
2023-05-08T01:49:48.211Z,27.02
2023-05-08T01:52:34.645Z,27.00
2023-05-08T01:55:15.095Z,27.01
2023-05-08T01:57:55.239Z,27.01
2023-05-08T02:00:29.978Z,27.02
2023-05-08T02:03:08.759Z,27.03
2023-05-08T02:05:47.681Z,27.03
2023-05-08T02:08:18.749Z,27.05
2023-05-08T02:10:52.601Z,27.03
2023-05-08T02:13:26.721Z,27.04
2023-05-08T02:16:07.140Z,27.02
2023-05-08T02:18:44.822Z,27.04
2023-05-08T02:21:20.151Z,27.02
2023-05-08T02:23:59.073Z,27.02
2023-05-08T02:26:35.991Z,27.01
2023-05-08T02:29:09.676Z,27.03
2023-05-08T02:31:42.302Z,27.00
2023-05-08T02:34:13.843Z,26.98
2023-05-08T02:36:47.655Z,26.97
2023-05-08T02:39:25.726Z,26.97
2023-05-08T02:41:58.727Z,27.01
2023-05-08T02:44:32.686Z,27.02
2023-05-08T02:47:28.063Z,26.99
2023-05-08T02:50:43.503Z,26.99
2023-05-08T02:53:27.033Z,27.01
2023-05-08T02:56:11.518Z,26.98
2023-05-08T02:59:15.857Z,26.97
2023-05-08T03:01:56.847Z,26.98
2023-05-08T03:04:34.836Z,26.98
2023-05-08T03:07:09.406Z,27.04
2023-05-08T03:09:48.839Z,27.02
2023-05-08T03:12:21.177Z,26.93
2023-05-08T03:15:12.496Z,26.98
2023-05-08T03:17:47.823Z,26.99
2023-05-08T03:20:22.064Z,26.99
2023-05-08T03:22:57.187Z,26.96
2023-05-08T03:25:29.329Z,27.02
2023-05-08T03:27:58.610Z,27.07
2023-05-08T03:30:29.157Z,27.13
2023-05-08T03:33:05.818Z,27.08
2023-05-08T03:35:39.266Z,27.01
2023-05-08T03:38:14.561Z,26.97
2023-05-08T03:40:42.908Z,26.98
2023-05-08T03:43:16.663Z,26.95
2023-05-08T03:45:46.113Z,27.01
2023-05-08T03:48:20.215Z,26.99
2023-05-08T03:50:53.542Z,27.02
2023-05-08T03:53:21.238Z,26.99
2023-05-08T03:55:51.116Z,27.01
2023-05-08T03:58:31.520Z,27.02
2023-05-08T04:01:08.833Z,26.97
2023-05-08T04:04:06.239Z,26.99
2023-05-08T04:06:56.950Z,26.99
2023-05-08T04:09:45.899Z,26.96
2023-05-08T04:12:20.721Z,26.93
2023-05-08T04:15:01.593Z,26.92
2023-05-08T04:17:43.867Z,26.94
2023-05-08T04:20:19.483Z,26.93
2023-05-08T04:22:49.796Z,26.93
2023-05-08T04:25:21.710Z,26.93
2023-05-08T04:27:57.545Z,26.93
2023-05-08T04:30:26.457Z,26.91
2023-05-08T04:32:58.282Z,26.91
2023-05-08T04:35:33.778Z,26.88
2023-05-08T04:38:02.481Z,26.90
2023-05-08T04:40:30.408Z,26.90
2023-05-08T04:42:59.413Z,26.90
2023-05-08T04:45:30.067Z,26.90
2023-05-08T04:48:00.983Z,26.88
2023-05-08T04:50:31.311Z,26.90
2023-05-08T04:52:58.829Z,26.98
2023-05-08T04:55:26.831Z,27.07
2023-05-08T04:58:02.272Z,27.02
2023-05-08T05:00:32.208Z,27.01
2023-05-08T05:02:59.935Z,27.02
2023-05-08T05:05:30.178Z,26.98
2023-05-08T05:08:04.298Z,26.92
2023-05-08T05:10:35.039Z,26.81
2023-05-08T05:13:02.708Z,26.70
2023-05-08T05:15:35.118Z,26.71
2023-05-08T05:18:02.878Z,26.68
2023-05-08T05:20:33.756Z,26.79
2023-05-08T05:23:03.794Z,26.83
2023-05-08T05:25:34.153Z,26.74
2023-05-08T05:28:02.335Z,26.76
2023-05-08T05:30:35.198Z,26.75
2023-05-08T05:33:07.315Z,26.72
2023-05-08T05:35:42.033Z,26.63
2023-05-08T05:38:10.080Z,26.68
2023-05-08T05:40:46.551Z,26.66
2023-05-08T05:43:20.718Z,26.69
2023-05-08T05:45:51.217Z,26.73
2023-05-08T05:48:21.458Z,26.75
2023-05-08T05:50:54.545Z,26.78
2023-05-08T05:53:24.758Z,26.75
2023-05-08T05:55:53.529Z,26.81
2023-05-08T05:58:24.832Z,26.75
2023-05-08T06:00:54.601Z,26.70
2023-05-08T06:03:28.168Z,26.59
2023-05-08T06:06:10.069Z,26.60
2023-05-08T06:08:43.522Z,26.58
2023-05-08T06:11:13.344Z,26.66
2023-05-08T06:13:50.469Z,26.27
2023-05-08T06:16:20.860Z,25.77
2023-05-08T06:18:51.674Z,25.77
2023-05-08T06:21:23.763Z,25.86
2023-05-08T06:23:53.670Z,25.92
2023-05-08T06:26:24.188Z,25.88
2023-05-08T06:28:52.359Z,25.93
2023-05-08T06:31:22.541Z,25.91
2023-05-08T06:33:49.965Z,25.89
2023-05-08T06:36:23.899Z,25.77
2023-05-08T06:38:54.456Z,25.78
2023-05-08T06:41:27.616Z,25.81
2023-05-08T06:44:00.153Z,25.78
2023-05-08T06:46:30.765Z,25.83
2023-05-08T06:49:03.941Z,25.78
2023-05-08T06:51:35.705Z,25.78
2023-05-08T06:54:05.640Z,25.85
2023-05-08T06:56:35.903Z,25.90
2023-05-08T06:59:08.834Z,25.98
2023-05-08T07:01:42.897Z,26.03
2023-05-08T07:04:12.909Z,26.18
2023-05-08T07:06:40.770Z,26.26
2023-05-08T07:09:08.568Z,26.54
2023-05-08T07:11:39.370Z,26.60
2023-05-08T07:14:09.087Z,26.68
2023-05-08T07:16:38.068Z,26.65
2023-05-08T07:19:08.732Z,26.69
2023-05-08T07:21:40.295Z,26.81
2023-05-08T07:24:14.157Z,27.05
2023-05-08T07:26:47.476Z,26.82
2023-05-08T07:29:15.627Z,26.77
2023-05-08T07:31:48.371Z,26.77
2023-05-08T07:34:19.465Z,26.60
2023-05-08T07:36:52.771Z,26.71
2023-05-08T07:39:23.559Z,26.92
2023-05-08T07:41:56.782Z,27.03
2023-05-08T07:44:24.445Z,26.59
2023-05-08T07:46:55.284Z,26.62
2023-05-08T07:49:23.138Z,26.75
2023-05-08T07:51:52.000Z,26.47
2023-05-08T07:54:20.632Z,26.73
2023-05-08T07:56:51.728Z,26.73
2023-05-08T07:59:20.007Z,26.62
2023-05-08T08:01:50.674Z,26.67
2023-05-08T08:04:22.419Z,26.38
2023-05-08T08:06:53.833Z,26.49
2023-05-08T08:09:21.958Z,26.39
2023-05-08T08:11:54.965Z,26.40
2023-05-08T08:14:25.375Z,26.25
2023-05-08T08:16:55.871Z,26.47
2023-05-08T08:19:28.402Z,26.63
2023-05-08T08:22:02.594Z,26.70
2023-05-08T08:24:35.830Z,26.71
2023-05-08T08:27:05.165Z,26.66
2023-05-08T08:29:35.979Z,27.26
2023-05-08T08:32:10.351Z,26.92
2023-05-08T08:34:44.895Z,26.81
2023-05-08T08:37:15.713Z,26.62
2023-05-08T08:39:43.842Z,26.69
2023-05-08T08:42:13.843Z,26.52
2023-05-08T08:44:44.471Z,26.46
2023-05-08T08:47:17.087Z,26.32
2023-05-08T08:49:51.353Z,26.21
2023-05-08T08:52:32.826Z,26.12
2023-05-08T08:55:09.916Z,26.06
2023-05-08T08:57:50.309Z,25.93
2023-05-08T09:00:22.656Z,26.01
2023-05-08T09:02:58.670Z,25.90
2023-05-08T09:05:29.646Z,25.98
2023-05-08T09:08:11.114Z,25.90
2023-05-08T09:10:42.407Z,25.79
2023-05-08T09:13:13.642Z,25.77
2023-05-08T09:15:46.816Z,25.80
2023-05-08T09:18:16.910Z,25.85
2023-05-08T09:20:49.973Z,25.87
2023-05-08T09:23:20.027Z,25.92
2023-05-08T09:25:53.348Z,25.65
2023-05-08T09:28:21.036Z,25.89
2023-05-08T09:30:59.247Z,25.86
2023-05-08T09:33:30.490Z,25.88
2023-05-08T09:36:01.719Z,25.74
2023-05-08T09:38:44.280Z,25.70
2023-05-08T09:41:19.829Z,25.48
2023-05-08T09:44:04.981Z,25.58
2023-05-08T09:46:36.121Z,25.56
2023-05-08T09:49:07.471Z,25.45
2023-05-08T09:51:37.962Z,25.22
2023-05-08T09:54:20.802Z,25.59
2023-05-08T09:56:48.974Z,25.71
2023-05-08T09:59:28.463Z,25.70
2023-05-08T10:02:10.439Z,25.66
2023-05-08T10:04:41.538Z,25.54
2023-05-08T10:07:11.732Z,25.53
2023-05-08T10:09:59.270Z,25.37
2023-05-08T10:12:29.921Z,25.50
2023-05-08T10:14:58.665Z,25.49
2023-05-08T10:17:59.402Z,25.30
2023-05-08T10:20:33.496Z,25.09
2023-05-08T10:23:11.512Z,25.27
2023-05-08T10:25:55.129Z,25.26
2023-05-08T10:28:35.247Z,25.03
2023-05-08T10:31:08.066Z,24.98
2023-05-08T10:33:41.858Z,25.07
2023-05-08T10:36:24.934Z,25.00
2023-05-08T10:38:54.691Z,25.24
2023-05-08T10:41:34.916Z,24.89
2023-05-08T10:44:06.856Z,24.58
2023-05-08T10:46:47.559Z,24.78
2023-05-08T10:49:30.384Z,25.00
2023-05-08T10:52:16.426Z,24.50
2023-05-08T10:54:59.336Z,24.31
2023-05-08T10:57:29.821Z,24.38
2023-05-08T11:00:00.205Z,24.37
2023-05-08T11:02:30.096Z,24.41
2023-05-08T11:05:18.848Z,24.14
2023-05-08T11:07:57.328Z,24.10
2023-05-08T11:10:37.035Z,24.01
2023-05-08T11:13:10.135Z,23.86
2023-05-08T11:15:39.415Z,23.90
2023-05-08T11:18:09.429Z,23.81
2023-05-08T11:21:03.972Z,23.47
2023-05-08T11:23:36.224Z,23.35
2023-05-08T11:26:16.553Z,23.48
2023-05-08T11:28:53.186Z,23.63
2023-05-08T11:31:50.119Z,23.63
2023-05-08T11:34:52.821Z,23.52
2023-05-08T11:37:22.642Z,23.48
2023-05-08T11:39:53.643Z,23.50
2023-05-08T11:42:27.117Z,23.44
2023-05-08T11:45:08.228Z,23.38
2023-05-08T11:47:43.789Z,23.31
2023-05-08T11:50:17.537Z,23.39
2023-05-08T11:52:49.384Z,23.33
2023-05-08T11:55:23.264Z,23.27
2023-05-08T11:57:58.150Z,23.43
2023-05-08T12:00:28.413Z,23.41
2023-05-08T12:03:09.187Z,23.26
2023-05-08T12:05:40.776Z,23.19
2023-05-08T12:08:13.089Z,23.29
2023-05-08T12:10:53.890Z,23.39
2023-05-08T12:13:33.473Z,23.51
2023-05-08T12:16:04.087Z,23.90
2023-05-08T12:18:34.672Z,23.84
2023-05-08T12:21:04.923Z,23.81
2023-05-08T12:23:38.326Z,23.87
2023-05-08T12:26:14.618Z,23.83
2023-05-08T12:28:54.295Z,23.92
2023-05-08T12:31:25.605Z,23.85
2023-05-08T12:33:56.491Z,23.71
2023-05-08T12:36:27.347Z,23.75
2023-05-08T12:39:16.759Z,23.86
2023-05-08T12:41:53.676Z,23.95
2023-05-08T12:44:28.300Z,23.88
2023-05-08T12:46:59.966Z,23.69
2023-05-08T12:49:30.008Z,23.70
2023-05-08T12:52:16.247Z,23.88
2023-05-08T12:54:51.309Z,23.85
2023-05-08T12:57:21.588Z,23.82
2023-05-08T13:00:05.994Z,23.86
2023-05-08T13:02:44.334Z,23.83
2023-05-08T13:05:22.930Z,23.69
2023-05-08T13:07:59.318Z,23.63
2023-05-08T13:10:29.628Z,23.63
2023-05-08T13:13:00.643Z,23.68
2023-05-08T13:15:35.193Z,23.67
2023-05-08T13:18:07.904Z,23.84
2023-05-08T13:20:39.690Z,23.78
2023-05-08T13:23:11.009Z,23.74
2023-05-08T13:25:40.202Z,23.71
2023-05-08T13:28:10.059Z,23.49
2023-05-08T13:30:40.742Z,23.44
2023-05-08T13:33:14.030Z,23.56
2023-05-08T13:35:44.857Z,23.72
2023-05-08T13:38:15.840Z,23.62
2023-05-08T13:40:48.986Z,23.62
2023-05-08T13:43:17.318Z,23.71
2023-05-08T13:45:47.973Z,23.68
2023-05-08T13:48:15.787Z,23.73
2023-05-08T13:50:46.239Z,23.81
2023-05-08T13:53:16.830Z,23.72
2023-05-08T13:56:02.500Z,23.81
2023-05-08T13:58:35.793Z,23.90
2023-05-08T14:01:21.831Z,23.94
2023-05-08T14:03:57.861Z,23.93
2023-05-08T14:06:26.127Z,23.80
2023-05-08T14:08:55.416Z,23.81
2023-05-08T14:11:25.059Z,23.79
2023-05-08T14:13:52.918Z,23.70
2023-05-08T14:16:33.698Z,23.58
2023-05-08T14:19:01.765Z,23.85
2023-05-08T14:21:35.086Z,23.90
2023-05-08T14:24:09.147Z,23.88
2023-05-08T14:26:44.856Z,24.01
2023-05-08T14:29:19.184Z,24.08
2023-05-08T14:31:49.347Z,24.52
2023-05-08T14:34:26.319Z,24.49
2023-05-08T14:36:57.663Z,24.86
2023-05-08T14:39:28.905Z,25.05
2023-05-08T14:42:21.337Z,25.13
2023-05-08T14:44:52.865Z,25.41
2023-05-08T14:47:27.538Z,25.45
2023-05-08T14:49:56.049Z,25.82
2023-05-08T14:52:33.168Z,25.66
2023-05-08T14:55:02.394Z,25.70
2023-05-08T14:57:35.391Z,25.54
2023-05-08T15:00:07.293Z,25.08
2023-05-08T15:02:37.882Z,24.94
2023-05-08T15:07:56.455Z,25.14
2023-05-08T15:10:27.535Z,25.28
2023-05-08T15:12:57.854Z,25.42
2023-05-08T15:15:28.477Z,25.20
2023-05-08T15:17:56.230Z,25.42
2023-05-08T15:20:24.250Z,25.44
2023-05-08T15:22:55.208Z,25.06
2023-05-08T15:25:32.229Z,25.03
2023-05-08T15:28:03.030Z,24.85
2023-05-08T15:30:33.983Z,24.75
2023-05-08T15:33:01.878Z,25.25
2023-05-08T15:35:35.450Z,25.20
2023-05-08T15:38:06.786Z,24.97
2023-05-08T15:40:37.634Z,24.90
2023-05-08T15:43:08.736Z,24.75
2023-05-08T15:45:36.477Z,24.66
2023-05-08T15:48:07.290Z,24.70
2023-05-08T15:50:37.804Z,24.76
2023-05-08T15:53:05.827Z,24.50
2023-05-08T15:55:39.858Z,24.43
2023-05-08T15:58:09.112Z,24.35
2023-05-08T16:00:45.730Z,24.14
2023-05-08T16:03:19.213Z,23.97
2023-05-08T16:05:49.990Z,24.12
2023-05-08T16:08:22.106Z,23.93
2023-05-08T16:11:00.003Z,23.87
2023-05-08T16:13:31.003Z,23.90
2023-05-08T16:16:05.380Z,23.85
2023-05-08T16:18:38.692Z,23.61
2023-05-08T16:21:14.471Z,23.69
2023-05-08T16:23:48.189Z,23.68
2023-05-08T16:26:21.205Z,23.67
2023-05-08T16:28:58.597Z,23.67
2023-05-08T16:31:29.718Z,23.61
2023-05-08T16:34:06.883Z,23.38
2023-05-08T16:36:45.947Z,23.29
2023-05-08T16:39:18.104Z,23.20
2023-05-08T16:41:54.996Z,23.23
2023-05-08T16:44:28.779Z,23.27
2023-05-08T16:46:59.978Z,23.34
2023-05-08T16:49:34.016Z,23.28
2023-05-08T16:52:11.094Z,23.37
2023-05-08T16:54:40.157Z,23.70
2023-05-08T16:57:10.752Z,23.93
2023-05-08T16:59:46.843Z,24.16
2023-05-08T17:02:21.047Z,24.30
2023-05-08T17:04:57.741Z,24.39
2023-05-08T17:07:31.086Z,24.44
2023-05-08T17:10:08.189Z,24.49
2023-05-08T17:12:44.089Z,24.56
2023-05-08T17:15:17.778Z,24.59
2023-05-08T17:17:57.674Z,24.62
2023-05-08T17:20:28.769Z,24.67
2023-05-08T17:22:59.500Z,24.70
2023-05-08T17:25:38.901Z,24.71
2023-05-08T17:28:07.936Z,24.77
2023-05-08T17:30:44.490Z,24.76
2023-05-08T17:33:21.132Z,24.81
2023-05-08T17:35:48.965Z,24.80
2023-05-08T17:38:22.252Z,24.79
2023-05-08T17:40:49.921Z,24.82
2023-05-08T17:43:20.985Z,24.85
2023-05-08T17:45:53.327Z,24.87
2023-05-08T17:48:29.336Z,24.87
2023-05-08T17:51:02.793Z,24.89
2023-05-08T17:53:35.974Z,24.94
2023-05-08T17:56:03.347Z,24.96
2023-05-08T17:58:42.350Z,24.95
2023-05-08T18:01:10.086Z,24.97
2023-05-08T18:03:49.472Z,24.96
2023-05-08T18:06:22.264Z,24.98
2023-05-08T18:08:50.021Z,24.97
2023-05-08T18:11:35.134Z,24.98
2023-05-08T18:14:06.296Z,24.96
2023-05-08T18:16:42.307Z,25.00
2023-05-08T18:19:15.313Z,25.00
2023-05-08T18:21:59.002Z,25.03
2023-05-08T18:24:29.880Z,25.01
2023-05-08T18:27:03.285Z,25.05
2023-05-08T18:29:36.959Z,25.04
2023-05-08T18:32:18.752Z,25.06
2023-05-08T18:34:49.693Z,25.06
2023-05-08T18:37:25.139Z,25.07
2023-05-08T18:40:03.478Z,25.08
2023-05-08T18:42:38.713Z,25.10
2023-05-08T18:45:12.489Z,25.16
2023-05-08T18:47:45.213Z,25.13
2023-05-08T18:50:21.325Z,25.10
2023-05-08T18:52:49.450Z,25.08
2023-05-08T18:55:27.142Z,25.10
2023-05-08T18:58:06.506Z,25.13
2023-05-08T19:00:48.424Z,25.16
2023-05-08T19:03:18.211Z,25.16
2023-05-08T19:05:51.722Z,25.17
2023-05-08T19:08:25.333Z,25.20
2023-05-08T19:11:04.120Z,25.19
2023-05-08T19:13:39.844Z,25.20
2023-05-08T19:16:12.694Z,25.21
2023-05-08T19:18:43.676Z,25.22
2023-05-08T19:21:16.507Z,25.27
2023-05-08T19:23:49.354Z,25.24
2023-05-08T19:26:22.882Z,25.26
2023-05-08T19:28:53.696Z,25.23
2023-05-08T19:31:24.067Z,25.27
2023-05-08T19:33:57.777Z,25.27
2023-05-08T19:36:25.674Z,25.27
2023-05-08T19:39:02.488Z,25.30
2023-05-08T19:41:38.354Z,25.37
2023-05-08T19:44:32.809Z,25.31
2023-05-08T19:47:09.066Z,25.30
2023-05-08T19:49:40.239Z,25.40
2023-05-08T19:52:18.382Z,25.34
2023-05-08T19:54:51.500Z,25.29
2023-05-08T19:57:32.743Z,25.27
2023-05-08T20:00:06.939Z,25.29
2023-05-08T20:02:42.915Z,25.23
2023-05-08T20:05:22.483Z,25.24
2023-05-08T20:08:04.519Z,25.31
2023-05-08T20:10:41.210Z,25.29
2023-05-08T20:13:19.347Z,25.26
2023-05-08T20:15:53.902Z,25.29
2023-05-08T20:18:30.117Z,25.33
2023-05-08T20:21:04.859Z,25.35
2023-05-08T20:23:39.591Z,25.36
2023-05-08T20:26:12.960Z,25.34
2023-05-08T20:28:54.602Z,25.29
2023-05-08T20:31:29.388Z,25.30
2023-05-08T20:34:07.758Z,25.32
2023-05-08T20:36:46.101Z,25.33
2023-05-08T20:39:24.286Z,25.29
2023-05-08T20:41:57.248Z,25.27
2023-05-08T20:44:35.553Z,25.28
2023-05-08T20:47:06.732Z,25.29
2023-05-08T20:49:42.579Z,25.30
2023-05-08T20:52:18.804Z,25.30
2023-05-08T20:54:54.593Z,25.28
2023-05-08T20:57:28.041Z,25.28
2023-05-08T21:00:06.251Z,25.31
2023-05-08T21:02:42.760Z,25.29
2023-05-08T21:05:19.001Z,25.29
2023-05-08T21:07:52.595Z,25.29
2023-05-08T21:10:31.532Z,25.29
2023-05-08T21:13:09.794Z,25.32
2023-05-08T21:15:40.464Z,25.35
2023-05-08T21:18:13.518Z,25.30
2023-05-08T21:20:50.383Z,25.33
2023-05-08T21:23:31.195Z,25.29
2023-05-08T21:26:01.986Z,25.35
2023-05-08T21:28:34.249Z,25.35
2023-05-08T21:31:04.938Z,25.35
2023-05-08T21:33:44.166Z,25.34
2023-05-08T21:36:20.368Z,25.33
2023-05-08T21:38:56.184Z,25.37
2023-05-08T21:41:29.172Z,25.40
2023-05-08T21:44:07.773Z,25.34
2023-05-08T21:46:42.435Z,25.35
2023-05-08T21:49:18.339Z,25.32
2023-05-08T21:51:58.003Z,25.33
2023-05-08T21:54:36.895Z,25.32
2023-05-08T21:57:14.879Z,25.32
2023-05-08T21:59:53.675Z,25.31
2023-05-08T22:02:28.974Z,25.32
2023-05-08T22:04:56.724Z,25.33
2023-05-08T22:07:33.358Z,25.32
2023-05-08T22:10:09.122Z,25.30
2023-05-08T22:12:39.415Z,25.29
2023-05-08T22:15:28.494Z,25.28
2023-05-08T22:18:04.569Z,25.27
2023-05-08T22:20:38.372Z,25.28
2023-05-08T22:23:08.972Z,25.31
2023-05-08T22:25:45.030Z,25.30
2023-05-08T22:28:20.469Z,25.28
2023-05-08T22:30:53.468Z,25.28
2023-05-08T22:33:26.194Z,25.28
2023-05-08T22:36:04.899Z,25.30
2023-05-08T22:38:40.292Z,25.30
2023-05-08T22:41:13.017Z,25.33
2023-05-08T22:43:52.026Z,25.36
2023-05-08T22:46:25.477Z,25.40
2023-05-08T22:49:06.476Z,25.34
2023-05-08T22:51:44.920Z,25.38
2023-05-08T22:54:14.853Z,25.33
2023-05-08T22:56:56.100Z,25.40
2023-05-08T22:59:34.295Z,25.42
2023-05-08T23:02:10.312Z,25.46
2023-05-08T23:04:49.375Z,25.44
2023-05-08T23:07:22.557Z,25.44
2023-05-08T23:09:58.540Z,25.47
2023-05-08T23:12:39.999Z,25.41
2023-05-08T23:15:11.499Z,25.44
2023-05-08T23:17:47.821Z,25.42
2023-05-08T23:20:25.620Z,25.42
2023-05-08T23:23:04.239Z,25.41
2023-05-08T23:25:42.393Z,25.42
2023-05-08T23:28:16.324Z,25.41
2023-05-08T23:30:52.124Z,25.41
2023-05-08T23:33:31.008Z,25.42
2023-05-08T23:36:07.378Z,25.39
2023-05-08T23:38:50.725Z,25.41
2023-05-08T23:41:29.812Z,25.38
2023-05-08T23:44:08.251Z,25.39
2023-05-08T23:46:41.797Z,25.41
2023-05-08T23:49:20.453Z,25.40
2023-05-08T23:52:05.408Z,25.40
2023-05-08T23:54:42.253Z,25.41
2023-05-08T23:57:15.479Z,25.46
2023-05-08T23:59:48.454Z,25.45
